sensor_id;sensor_type;location;lat;lon;timestamp;temperature;humidity
25616;DHT22;13482;48.234;13.006;2022-10-15T00:01:22;17.40;73.00
25616;DHT22;13482;48.234;13.006;2022-10-15T00:03:49;17.40;73.00
25616;DHT22;13482;48.234;13.006;2022-10-15T00:06:18;17.40;73.10
25616;DHT22;13482;48.234;13.006;2022-10-15T00:08:47;17.40;73.00
25616;DHT22;13482;48.234;13.006;2022-10-15T00:11:20;17.40;73.10
25616;DHT22;13482;48.234;13.006;2022-10-15T00:13:49;17.40;73.20
25616;DHT22;13482;48.234;13.006;2022-10-15T00:16:21;17.40;73.20
25616;DHT22;13482;48.234;13.006;2022-10-15T00:18:50;17.40;73.20
25616;DHT22;13482;48.234;13.006;2022-10-15T00:21:19;17.40;73.30
25616;DHT22;13482;48.234;13.006;2022-10-15T00:23:47;17.40;73.30
25616;DHT22;13482;48.234;13.006;2022-10-15T00:26:18;17.40;73.30
25616;DHT22;13482;48.234;13.006;2022-10-15T00:28:52;17.40;73.40
25616;DHT22;13482;48.234;13.006;2022-10-15T00:31:20;17.40;73.30
25616;DHT22;13482;48.234;13.006;2022-10-15T00:33:50;17.40;73.30
25616;DHT22;13482;48.234;13.006;2022-10-15T00:36:31;17.40;73.40
25616;DHT22;13482;48.234;13.006;2022-10-15T00:39:00;17.40;73.30
25616;DHT22;13482;48.234;13.006;2022-10-15T00:41:32;17.40;73.30
25616;DHT22;13482;48.234;13.006;2022-10-15T00:47:11;17.40;74.10
25616;DHT22;13482;48.234;13.006;2022-10-15T00:55:40;17.40;73.60
25616;DHT22;13482;48.234;13.006;2022-10-15T00:58:11;17.30;73.50
25616;DHT22;13482;48.234;13.006;2022-10-15T01:00:40;17.30;73.40
25616;DHT22;13482;48.234;13.006;2022-10-15T01:03:08;17.30;73.50
25616;DHT22;13482;48.234;13.006;2022-10-15T01:05:39;17.30;73.60
25616;DHT22;13482;48.234;13.006;2022-10-15T01:08:07;17.30;73.60
25616;DHT22;13482;48.234;13.006;2022-10-15T01:13:58;17.30;74.10
25616;DHT22;13482;48.234;13.006;2022-10-15T01:16:48;17.30;74.00
25616;DHT22;13482;48.234;13.006;2022-10-15T01:41:43;17.20;73.80
25616;DHT22;13482;48.234;13.006;2022-10-15T01:44:38;17.20;74.00
25616;DHT22;13482;48.234;13.006;2022-10-15T01:47:30;17.20;74.50
25616;DHT22;13482;48.234;13.006;2022-10-15T01:50:01;17.20;74.00
25616;DHT22;13482;48.234;13.006;2022-10-15T01:52:33;17.10;73.80
25616;DHT22;13482;48.234;13.006;2022-10-15T01:55:05;17.10;74.00
25616;DHT22;13482;48.234;13.006;2022-10-15T01:57:37;17.10;74.10
25616;DHT22;13482;48.234;13.006;2022-10-15T02:00:07;17.10;74.10
25616;DHT22;13482;48.234;13.006;2022-10-15T02:02:35;17.10;74.20
25616;DHT22;13482;48.234;13.006;2022-10-15T02:05:04;17.10;74.30
25616;DHT22;13482;48.234;13.006;2022-10-15T02:10:26;17.10;74.50
25616;DHT22;13482;48.234;13.006;2022-10-15T02:13:26;17.10;74.20
25616;DHT22;13482;48.234;13.006;2022-10-15T02:16:30;17.10;75.10
25616;DHT22;13482;48.234;13.006;2022-10-15T02:19:27;17.10;75.00
25616;DHT22;13482;48.234;13.006;2022-10-15T02:22:04;17.10;74.40
25616;DHT22;13482;48.234;13.006;2022-10-15T02:24:52;17.10;74.30
25616;DHT22;13482;48.234;13.006;2022-10-15T02:27:25;17.10;74.50
25616;DHT22;13482;48.234;13.006;2022-10-15T02:29:55;17.10;74.30
25616;DHT22;13482;48.234;13.006;2022-10-15T02:32:24;17.10;74.30
25616;DHT22;13482;48.234;13.006;2022-10-15T02:34:52;17.10;74.40
25616;DHT22;13482;48.234;13.006;2022-10-15T02:37:22;17.10;74.40
25616;DHT22;13482;48.234;13.006;2022-10-15T02:39:51;17.10;74.40
25616;DHT22;13482;48.234;13.006;2022-10-15T02:42:19;17.10;74.40
25616;DHT22;13482;48.234;13.006;2022-10-15T02:44:47;17.10;74.50
25616;DHT22;13482;48.234;13.006;2022-10-15T02:47:14;17.10;74.60
25616;DHT22;13482;48.234;13.006;2022-10-15T02:49:41;17.10;74.60
25616;DHT22;13482;48.234;13.006;2022-10-15T02:52:09;17.10;74.50
25616;DHT22;13482;48.234;13.006;2022-10-15T02:54:36;17.10;74.50
25616;DHT22;13482;48.234;13.006;2022-10-15T02:57:03;17.20;74.60
25616;DHT22;13482;48.234;13.006;2022-10-15T02:59:30;17.10;74.60
25616;DHT22;13482;48.234;13.006;2022-10-15T03:01:57;17.20;74.60
25616;DHT22;13482;48.234;13.006;2022-10-15T03:04:24;17.20;74.60
25616;DHT22;13482;48.234;13.006;2022-10-15T03:06:51;17.20;74.60
25616;DHT22;13482;48.234;13.006;2022-10-15T03:09:19;17.20;74.70
25616;DHT22;13482;48.234;13.006;2022-10-15T03:11:46;17.20;74.60
25616;DHT22;13482;48.234;13.006;2022-10-15T03:14:14;17.20;74.70
25616;DHT22;13482;48.234;13.006;2022-10-15T03:16:41;17.20;74.70
25616;DHT22;13482;48.234;13.006;2022-10-15T03:19:08;17.20;74.70
25616;DHT22;13482;48.234;13.006;2022-10-15T03:21:35;17.20;74.70
25616;DHT22;13482;48.234;13.006;2022-10-15T03:24:02;17.20;74.60
25616;DHT22;13482;48.234;13.006;2022-10-15T03:26:29;17.20;74.70
25616;DHT22;13482;48.234;13.006;2022-10-15T03:28:57;17.20;74.70
25616;DHT22;13482;48.234;13.006;2022-10-15T03:31:24;17.20;74.70
25616;DHT22;13482;48.234;13.006;2022-10-15T03:33:51;17.20;74.70
25616;DHT22;13482;48.234;13.006;2022-10-15T03:36:18;17.20;74.80
25616;DHT22;13482;48.234;13.006;2022-10-15T03:41:34;17.20;74.90
25616;DHT22;13482;48.234;13.006;2022-10-15T03:44:03;17.20;74.80
25616;DHT22;13482;48.234;13.006;2022-10-15T03:46:31;17.20;74.80
25616;DHT22;13482;48.234;13.006;2022-10-15T03:49:00;17.20;74.90
25616;DHT22;13482;48.234;13.006;2022-10-15T03:51:27;17.20;74.90
25616;DHT22;13482;48.234;13.006;2022-10-15T03:53:57;17.20;74.90
25616;DHT22;13482;48.234;13.006;2022-10-15T03:56:24;17.20;74.90
25616;DHT22;13482;48.234;13.006;2022-10-15T03:58:51;17.20;74.90
25616;DHT22;13482;48.234;13.006;2022-10-15T04:01:18;17.20;74.90
25616;DHT22;13482;48.234;13.006;2022-10-15T04:03:46;17.20;74.90
25616;DHT22;13482;48.234;13.006;2022-10-15T04:06:13;17.30;75.00
25616;DHT22;13482;48.234;13.006;2022-10-15T04:08:40;17.30;75.00
25616;DHT22;13482;48.234;13.006;2022-10-15T04:11:07;17.30;75.00
25616;DHT22;13482;48.234;13.006;2022-10-15T04:13:35;17.30;75.00
25616;DHT22;13482;48.234;13.006;2022-10-15T04:16:05;17.30;75.00
25616;DHT22;13482;48.234;13.006;2022-10-15T04:18:32;17.30;75.10
25616;DHT22;13482;48.234;13.006;2022-10-15T04:21:00;17.30;75.00
25616;DHT22;13482;48.234;13.006;2022-10-15T04:23:27;17.30;75.00
25616;DHT22;13482;48.234;13.006;2022-10-15T04:25:58;17.30;75.00
25616;DHT22;13482;48.234;13.006;2022-10-15T04:28:27;17.30;75.10
25616;DHT22;13482;48.234;13.006;2022-10-15T04:30:56;17.30;75.00
25616;DHT22;13482;48.234;13.006;2022-10-15T04:33:24;17.30;75.00
25616;DHT22;13482;48.234;13.006;2022-10-15T04:36:06;17.30;75.00
25616;DHT22;13482;48.234;13.006;2022-10-15T04:38:35;17.30;75.30
25616;DHT22;13482;48.234;13.006;2022-10-15T04:41:08;17.30;75.00
25616;DHT22;13482;48.234;13.006;2022-10-15T04:43:37;17.30;75.20
25616;DHT22;13482;48.234;13.006;2022-10-15T04:46:06;17.30;75.10
25616;DHT22;13482;48.234;13.006;2022-10-15T04:48:36;17.30;75.10
25616;DHT22;13482;48.234;13.006;2022-10-15T04:51:20;17.30;75.10
25616;DHT22;13482;48.234;13.006;2022-10-15T04:53:47;17.30;75.10
25616;DHT22;13482;48.234;13.006;2022-10-15T04:56:17;17.30;75.10
25616;DHT22;13482;48.234;13.006;2022-10-15T04:58:48;17.30;75.10
25616;DHT22;13482;48.234;13.006;2022-10-15T05:01:17;17.30;75.10
25616;DHT22;13482;48.234;13.006;2022-10-15T05:03:47;17.30;75.10
25616;DHT22;13482;48.234;13.006;2022-10-15T05:06:19;17.30;75.20
25616;DHT22;13482;48.234;13.006;2022-10-15T05:08:48;17.30;75.30
25616;DHT22;13482;48.234;13.006;2022-10-15T05:11:21;17.30;75.20
25616;DHT22;13482;48.234;13.006;2022-10-15T05:13:50;17.30;75.20
25616;DHT22;13482;48.234;13.006;2022-10-15T05:16:20;17.30;75.20
25616;DHT22;13482;48.234;13.006;2022-10-15T05:18:51;17.30;75.20
25616;DHT22;13482;48.234;13.006;2022-10-15T05:21:20;17.30;75.20
25616;DHT22;13482;48.234;13.006;2022-10-15T05:23:48;17.30;75.20
25616;DHT22;13482;48.234;13.006;2022-10-15T05:26:18;17.30;75.30
25616;DHT22;13482;48.234;13.006;2022-10-15T05:28:47;17.30;75.30
25616;DHT22;13482;48.234;13.006;2022-10-15T05:31:17;17.30;75.30
25616;DHT22;13482;48.234;13.006;2022-10-15T05:33:47;17.30;75.30
25616;DHT22;13482;48.234;13.006;2022-10-15T05:36:22;17.30;75.30
25616;DHT22;13482;48.234;13.006;2022-10-15T05:38:55;17.20;75.20
25616;DHT22;13482;48.234;13.006;2022-10-15T05:41:24;17.20;75.40
25616;DHT22;13482;48.234;13.006;2022-10-15T05:43:53;17.20;75.30
25616;DHT22;13482;48.234;13.006;2022-10-15T05:46:22;17.20;75.40
25616;DHT22;13482;48.234;13.006;2022-10-15T05:48:54;17.20;75.60
25616;DHT22;13482;48.234;13.006;2022-10-15T05:51:24;17.20;75.70
25616;DHT22;13482;48.234;13.006;2022-10-15T05:53:56;17.10;75.60
25616;DHT22;13482;48.234;13.006;2022-10-15T05:56:24;17.10;75.70
25616;DHT22;13482;48.234;13.006;2022-10-15T05:58:52;17.10;75.70
25616;DHT22;13482;48.234;13.006;2022-10-15T06:01:19;17.10;75.70
25616;DHT22;13482;48.234;13.006;2022-10-15T06:03:46;17.10;75.80
25616;DHT22;13482;48.234;13.006;2022-10-15T06:06:16;17.10;75.90
25616;DHT22;13482;48.234;13.006;2022-10-15T06:08:49;17.10;76.00
25616;DHT22;13482;48.234;13.006;2022-10-15T06:11:17;17.10;75.90
25616;DHT22;13482;48.234;13.006;2022-10-15T06:13:45;17.10;76.00
25616;DHT22;13482;48.234;13.006;2022-10-15T06:16:14;17.10;76.10
25616;DHT22;13482;48.234;13.006;2022-10-15T06:18:51;17.10;76.10
25616;DHT22;13482;48.234;13.006;2022-10-15T06:21:19;17.20;76.20
25616;DHT22;13482;48.234;13.006;2022-10-15T06:23:46;17.20;76.30
25616;DHT22;13482;48.234;13.006;2022-10-15T06:26:13;17.20;76.30
25616;DHT22;13482;48.234;13.006;2022-10-15T06:28:41;17.20;76.40
25616;DHT22;13482;48.234;13.006;2022-10-15T06:31:08;17.30;76.40
25616;DHT22;13482;48.234;13.006;2022-10-15T06:33:36;17.30;76.50
25616;DHT22;13482;48.234;13.006;2022-10-15T06:36:05;17.30;76.40
25616;DHT22;13482;48.234;13.006;2022-10-15T06:38:34;17.40;76.50
25616;DHT22;13482;48.234;13.006;2022-10-15T06:41:06;17.40;76.50
25616;DHT22;13482;48.234;13.006;2022-10-15T06:43:34;17.50;76.50
25616;DHT22;13482;48.234;13.006;2022-10-15T06:46:03;17.50;76.30
25616;DHT22;13482;48.234;13.006;2022-10-15T06:48:31;17.50;76.30
25616;DHT22;13482;48.234;13.006;2022-10-15T06:51:00;17.60;76.30
25616;DHT22;13482;48.234;13.006;2022-10-15T06:53:28;17.60;76.30
25616;DHT22;13482;48.234;13.006;2022-10-15T06:55:57;17.60;76.30
25616;DHT22;13482;48.234;13.006;2022-10-15T06:58:25;17.60;76.50
25616;DHT22;13482;48.234;13.006;2022-10-15T07:00:59;17.60;76.50
25616;DHT22;13482;48.234;13.006;2022-10-15T07:03:27;17.70;76.60
25616;DHT22;13482;48.234;13.006;2022-10-15T07:05:55;17.70;76.40
25616;DHT22;13482;48.234;13.006;2022-10-15T07:08:24;17.70;76.40
25616;DHT22;13482;48.234;13.006;2022-10-15T07:10:51;17.70;76.60
25616;DHT22;13482;48.234;13.006;2022-10-15T07:13:18;17.70;76.50
25616;DHT22;13482;48.234;13.006;2022-10-15T07:15:45;17.70;76.60
25616;DHT22;13482;48.234;13.006;2022-10-15T07:18:15;17.70;76.60
25616;DHT22;13482;48.234;13.006;2022-10-15T07:20:42;17.80;76.60
25616;DHT22;13482;48.234;13.006;2022-10-15T07:23:09;17.80;76.60
25616;DHT22;13482;48.234;13.006;2022-10-15T07:25:36;17.80;76.60
25616;DHT22;13482;48.234;13.006;2022-10-15T07:28:05;17.80;76.70
25616;DHT22;13482;48.234;13.006;2022-10-15T07:30:32;17.80;76.80
25616;DHT22;13482;48.234;13.006;2022-10-15T07:32:59;17.80;76.90
25616;DHT22;13482;48.234;13.006;2022-10-15T07:35:27;17.80;77.00
25616;DHT22;13482;48.234;13.006;2022-10-15T07:37:54;17.80;77.10
25616;DHT22;13482;48.234;13.006;2022-10-15T07:40:21;17.80;77.10
25616;DHT22;13482;48.234;13.006;2022-10-15T07:42:56;17.80;77.50
25616;DHT22;13482;48.234;13.006;2022-10-15T07:45:25;17.90;77.70
25616;DHT22;13482;48.234;13.006;2022-10-15T07:47:53;17.90;77.40
25616;DHT22;13482;48.234;13.006;2022-10-15T07:50:20;17.90;77.50
25616;DHT22;13482;48.234;13.006;2022-10-15T07:52:47;17.90;77.50
25616;DHT22;13482;48.234;13.006;2022-10-15T07:55:15;17.90;77.70
25616;DHT22;13482;48.234;13.006;2022-10-15T07:57:42;18.00;77.80
25616;DHT22;13482;48.234;13.006;2022-10-15T08:00:09;18.00;78.00
25616;DHT22;13482;48.234;13.006;2022-10-15T08:02:37;18.00;78.00
25616;DHT22;13482;48.234;13.006;2022-10-15T08:05:04;18.00;78.00
25616;DHT22;13482;48.234;13.006;2022-10-15T08:07:32;18.10;78.20
25616;DHT22;13482;48.234;13.006;2022-10-15T08:09:59;18.10;78.30
25616;DHT22;13482;48.234;13.006;2022-10-15T08:12:26;18.10;78.20
25616;DHT22;13482;48.234;13.006;2022-10-15T08:14:53;18.20;78.20
25616;DHT22;13482;48.234;13.006;2022-10-15T08:17:20;18.20;78.20
25616;DHT22;13482;48.234;13.006;2022-10-15T08:19:47;18.20;78.30
25616;DHT22;13482;48.234;13.006;2022-10-15T08:22:15;18.30;78.20
25616;DHT22;13482;48.234;13.006;2022-10-15T08:24:42;18.30;78.30
25616;DHT22;13482;48.234;13.006;2022-10-15T08:27:09;18.40;78.20
25616;DHT22;13482;48.234;13.006;2022-10-15T08:29:36;18.40;78.20
25616;DHT22;13482;48.234;13.006;2022-10-15T08:32:03;18.50;78.20
25616;DHT22;13482;48.234;13.006;2022-10-15T08:34:31;18.50;78.20
25616;DHT22;13482;48.234;13.006;2022-10-15T08:36:58;18.50;78.20
25616;DHT22;13482;48.234;13.006;2022-10-15T08:39:25;18.60;78.30
25616;DHT22;13482;48.234;13.006;2022-10-15T08:41:52;18.60;78.30
25616;DHT22;13482;48.234;13.006;2022-10-15T08:44:26;18.60;78.30
25616;DHT22;13482;48.234;13.006;2022-10-15T08:53:02;18.80;78.50
25616;DHT22;13482;48.234;13.006;2022-10-15T08:55:37;18.80;78.40
25616;DHT22;13482;48.234;13.006;2022-10-15T08:58:20;18.90;78.70
25616;DHT22;13482;48.234;13.006;2022-10-15T09:01:01;18.90;78.70
25616;DHT22;13482;48.234;13.006;2022-10-15T09:06:44;19.00;78.70
25616;DHT22;13482;48.234;13.006;2022-10-15T09:15:04;19.20;78.60
25616;DHT22;13482;48.234;13.006;2022-10-15T09:17:41;19.20;78.70
25616;DHT22;13482;48.234;13.006;2022-10-15T09:20:18;19.30;78.70
25616;DHT22;13482;48.234;13.006;2022-10-15T09:22:50;19.40;79.00
25616;DHT22;13482;48.234;13.006;2022-10-15T09:25:21;19.40;78.90
25616;DHT22;13482;48.234;13.006;2022-10-15T09:27:55;19.50;78.90
25616;DHT22;13482;48.234;13.006;2022-10-15T09:36:17;19.70;78.90
25616;DHT22;13482;48.234;13.006;2022-10-15T09:42:26;19.80;79.10
25616;DHT22;13482;48.234;13.006;2022-10-15T09:45:02;19.90;78.40
25616;DHT22;13482;48.234;13.006;2022-10-15T09:47:38;19.90;78.40
25616;DHT22;13482;48.234;13.006;2022-10-15T09:50:11;20.00;78.20
25616;DHT22;13482;48.234;13.006;2022-10-15T09:53:04;20.00;78.10
25616;DHT22;13482;48.234;13.006;2022-10-15T09:55:46;20.00;77.90
25616;DHT22;13482;48.234;13.006;2022-10-15T09:58:23;20.00;77.80
25616;DHT22;13482;48.234;13.006;2022-10-15T10:03:30;20.00;77.60
25616;DHT22;13482;48.234;13.006;2022-10-15T10:06:11;20.00;77.50
25616;DHT22;13482;48.234;13.006;2022-10-15T10:08:48;20.00;77.80
25616;DHT22;13482;48.234;13.006;2022-10-15T10:11:22;20.00;77.60
25616;DHT22;13482;48.234;13.006;2022-10-15T10:13:54;20.00;77.40
25616;DHT22;13482;48.234;13.006;2022-10-15T10:16:24;19.90;77.50
25616;DHT22;13482;48.234;13.006;2022-10-15T10:19:12;19.90;77.50
25616;DHT22;13482;48.234;13.006;2022-10-15T10:21:41;20.00;77.80
25616;DHT22;13482;48.234;13.006;2022-10-15T10:24:29;20.00;77.60
25616;DHT22;13482;48.234;13.006;2022-10-15T10:26:58;20.00;77.80
25616;DHT22;13482;48.234;13.006;2022-10-15T10:29:27;20.00;77.60
25616;DHT22;13482;48.234;13.006;2022-10-15T10:32:11;20.00;77.70
25616;DHT22;13482;48.234;13.006;2022-10-15T10:34:45;20.10;77.80
25616;DHT22;13482;48.234;13.006;2022-10-15T10:37:18;20.10;77.70
25616;DHT22;13482;48.234;13.006;2022-10-15T10:39:51;20.20;77.80
25616;DHT22;13482;48.234;13.006;2022-10-15T10:42:32;20.30;78.00
25616;DHT22;13482;48.234;13.006;2022-10-15T10:45:16;20.40;78.10
25616;DHT22;13482;48.234;13.006;2022-10-15T10:47:48;20.50;77.60
25616;DHT22;13482;48.234;13.006;2022-10-15T10:50:28;20.60;77.60
25616;DHT22;13482;48.234;13.006;2022-10-15T10:53:33;20.70;77.10
25616;DHT22;13482;48.234;13.006;2022-10-15T10:56:06;20.80;76.90
25616;DHT22;13482;48.234;13.006;2022-10-15T10:58:36;20.90;76.90
25616;DHT22;13482;48.234;13.006;2022-10-15T11:01:03;20.90;77.00
25616;DHT22;13482;48.234;13.006;2022-10-15T11:03:36;21.00;77.00
25616;DHT22;13482;48.234;13.006;2022-10-15T11:29:40;22.20;74.30
25616;DHT22;13482;48.234;13.006;2022-10-15T11:32:48;22.40;74.80
25616;DHT22;13482;48.234;13.006;2022-10-15T11:39:17;22.60;71.60
25616;DHT22;13482;48.234;13.006;2022-10-15T11:42:14;22.70;71.40
25616;DHT22;13482;48.234;13.006;2022-10-15T11:47:53;22.90;71.60
25616;DHT22;13482;48.234;13.006;2022-10-15T11:56:13;23.00;71.90
25616;DHT22;13482;48.234;13.006;2022-10-15T12:01:44;23.20;71.00
25616;DHT22;13482;48.234;13.006;2022-10-15T12:07:22;23.30;68.70
25616;DHT22;13482;48.234;13.006;2022-10-15T12:10:01;23.30;70.40
25616;DHT22;13482;48.234;13.006;2022-10-15T12:12:58;23.30;70.80
25616;DHT22;13482;48.234;13.006;2022-10-15T12:15:32;23.40;70.60
25616;DHT22;13482;48.234;13.006;2022-10-15T12:23:58;23.70;67.70
25616;DHT22;13482;48.234;13.006;2022-10-15T12:29:03;23.90;70.00
25616;DHT22;13482;48.234;13.006;2022-10-15T12:31:49;23.90;69.70
25616;DHT22;13482;48.234;13.006;2022-10-15T12:34:31;23.90;68.30
25616;DHT22;13482;48.234;13.006;2022-10-15T12:37:14;23.90;69.30
25616;DHT22;13482;48.234;13.006;2022-10-15T12:39:44;23.90;69.30
25616;DHT22;13482;48.234;13.006;2022-10-15T12:42:29;23.80;69.30
25616;DHT22;13482;48.234;13.006;2022-10-15T12:45:17;23.80;69.10
25616;DHT22;13482;48.234;13.006;2022-10-15T12:50:42;23.70;68.60
25616;DHT22;13482;48.234;13.006;2022-10-15T12:58:39;23.70;68.80
25616;DHT22;13482;48.234;13.006;2022-10-15T13:11:59;23.80;68.20
25616;DHT22;13482;48.234;13.006;2022-10-15T13:14:38;23.80;69.20
25616;DHT22;13482;48.234;13.006;2022-10-15T13:17:19;23.80;69.10
25616;DHT22;13482;48.234;13.006;2022-10-15T13:20:00;23.80;68.80
25616;DHT22;13482;48.234;13.006;2022-10-15T13:22:35;23.80;69.50
25616;DHT22;13482;48.234;13.006;2022-10-15T13:25:03;23.90;69.50
25616;DHT22;13482;48.234;13.006;2022-10-15T13:27:32;23.90;69.80
25616;DHT22;13482;48.234;13.006;2022-10-15T13:32:46;24.00;69.60
25616;DHT22;13482;48.234;13.006;2022-10-15T13:35:21;24.10;69.50
25616;DHT22;13482;48.234;13.006;2022-10-15T13:37:51;24.10;69.40
25616;DHT22;13482;48.234;13.006;2022-10-15T13:40:24;24.20;69.60
25616;DHT22;13482;48.234;13.006;2022-10-15T13:45:32;24.20;69.10
25616;DHT22;13482;48.234;13.006;2022-10-15T13:48:00;24.20;69.10
25616;DHT22;13482;48.234;13.006;2022-10-15T13:50:37;24.20;69.00
25616;DHT22;13482;48.234;13.006;2022-10-15T13:55:37;24.20;69.20
25616;DHT22;13482;48.234;13.006;2022-10-15T14:03:29;24.50;70.60
25616;DHT22;13482;48.234;13.006;2022-10-15T14:08:55;24.90;70.00
25616;DHT22;13482;48.234;13.006;2022-10-15T14:11:28;25.00;70.00
25616;DHT22;13482;48.234;13.006;2022-10-15T14:13:57;25.20;70.00
25616;DHT22;13482;48.234;13.006;2022-10-15T14:21:42;25.80;70.20
25616;DHT22;13482;48.234;13.006;2022-10-15T14:24:19;26.10;69.90
25616;DHT22;13482;48.234;13.006;2022-10-15T14:26:48;26.50;69.50
25616;DHT22;13482;48.234;13.006;2022-10-15T14:29:23;26.80;70.00
25616;DHT22;13482;48.234;13.006;2022-10-15T14:31:52;27.20;69.00
25616;DHT22;13482;48.234;13.006;2022-10-15T14:34:36;27.50;68.80
25616;DHT22;13482;48.234;13.006;2022-10-15T14:37:27;27.80;66.10
25616;DHT22;13482;48.234;13.006;2022-10-15T14:48:30;27.80;60.20
25616;DHT22;13482;48.234;13.006;2022-10-15T14:51:05;27.40;61.30
25616;DHT22;13482;48.234;13.006;2022-10-15T14:53:36;27.10;62.20
25616;DHT22;13482;48.234;13.006;2022-10-15T14:56:18;26.70;62.50
25616;DHT22;13482;48.234;13.006;2022-10-15T14:58:55;26.40;62.30
25616;DHT22;13482;48.234;13.006;2022-10-15T15:01:23;26.20;63.90
25616;DHT22;13482;48.234;13.006;2022-10-15T15:03:53;26.20;65.10
25616;DHT22;13482;48.234;13.006;2022-10-15T15:06:22;26.30;65.10
25616;DHT22;13482;48.234;13.006;2022-10-15T15:08:49;26.30;64.80
25616;DHT22;13482;48.234;13.006;2022-10-15T15:11:22;26.40;64.70
25616;DHT22;13482;48.234;13.006;2022-10-15T15:13:50;26.50;64.50
25616;DHT22;13482;48.234;13.006;2022-10-15T15:16:19;26.70;65.20
25616;DHT22;13482;48.234;13.006;2022-10-15T15:18:46;26.80;64.60
25616;DHT22;13482;48.234;13.006;2022-10-15T15:21:19;26.80;63.70
25616;DHT22;13482;48.234;13.006;2022-10-15T15:23:47;26.80;63.40
25616;DHT22;13482;48.234;13.006;2022-10-15T15:26:15;26.70;63.00
25616;DHT22;13482;48.234;13.006;2022-10-15T15:28:42;26.60;62.70
25616;DHT22;13482;48.234;13.006;2022-10-15T15:31:14;26.40;63.10
25616;DHT22;13482;48.234;13.006;2022-10-15T15:33:43;26.40;64.10
25616;DHT22;13482;48.234;13.006;2022-10-15T15:36:15;26.50;65.20
25616;DHT22;13482;48.234;13.006;2022-10-15T15:38:48;26.80;64.70
25616;DHT22;13482;48.234;13.006;2022-10-15T15:41:18;27.00;64.60
25616;DHT22;13482;48.234;13.006;2022-10-15T15:43:46;27.20;63.90
25616;DHT22;13482;48.234;13.006;2022-10-15T15:46:14;27.20;63.20
25616;DHT22;13482;48.234;13.006;2022-10-15T15:48:41;27.20;62.40
25616;DHT22;13482;48.234;13.006;2022-10-15T15:53:48;26.90;61.30
25616;DHT22;13482;48.234;13.006;2022-10-15T15:56:15;26.70;61.90
25616;DHT22;13482;48.234;13.006;2022-10-15T15:58:42;26.40;61.80
25616;DHT22;13482;48.234;13.006;2022-10-15T16:01:10;26.10;62.00
25616;DHT22;13482;48.234;13.006;2022-10-15T16:03:37;25.90;62.20
25616;DHT22;13482;48.234;13.006;2022-10-15T16:06:05;25.60;62.30
25616;DHT22;13482;48.234;13.006;2022-10-15T16:08:34;25.40;62.50
25616;DHT22;13482;48.234;13.006;2022-10-15T16:11:03;25.10;62.70
25616;DHT22;13482;48.234;13.006;2022-10-15T16:13:31;24.90;62.90
25616;DHT22;13482;48.234;13.006;2022-10-15T16:15:59;24.70;63.10
25616;DHT22;13482;48.234;13.006;2022-10-15T16:18:26;24.40;63.30
25616;DHT22;13482;48.234;13.006;2022-10-15T16:20:54;24.20;63.50
25616;DHT22;13482;48.234;13.006;2022-10-15T16:23:21;24.10;63.70
25616;DHT22;13482;48.234;13.006;2022-10-15T16:25:48;23.90;63.80
25616;DHT22;13482;48.234;13.006;2022-10-15T16:28:15;23.80;64.00
25616;DHT22;13482;48.234;13.006;2022-10-15T16:30:42;23.60;64.20
25616;DHT22;13482;48.234;13.006;2022-10-15T16:33:10;23.50;64.30
25616;DHT22;13482;48.234;13.006;2022-10-15T16:35:37;23.40;64.50
25616;DHT22;13482;48.234;13.006;2022-10-15T16:38:04;23.30;64.60
25616;DHT22;13482;48.234;13.006;2022-10-15T16:40:32;23.10;64.70
25616;DHT22;13482;48.234;13.006;2022-10-15T16:42:59;23.00;64.90
25616;DHT22;13482;48.234;13.006;2022-10-15T16:45:26;22.90;65.00
25616;DHT22;13482;48.234;13.006;2022-10-15T16:47:53;22.80;65.20
25616;DHT22;13482;48.234;13.006;2022-10-15T16:50:20;22.70;65.30
25616;DHT22;13482;48.234;13.006;2022-10-15T16:52:48;22.60;65.40
25616;DHT22;13482;48.234;13.006;2022-10-15T16:55:15;22.50;65.40
25616;DHT22;13482;48.234;13.006;2022-10-15T16:57:43;22.40;65.40
25616;DHT22;13482;48.234;13.006;2022-10-15T17:00:10;22.30;65.40
25616;DHT22;13482;48.234;13.006;2022-10-15T17:02:38;22.20;65.40
25616;DHT22;13482;48.234;13.006;2022-10-15T17:05:05;22.00;65.60
25616;DHT22;13482;48.234;13.006;2022-10-15T17:07:33;21.90;65.80
25616;DHT22;13482;48.234;13.006;2022-10-15T17:10:00;21.80;66.00
25616;DHT22;13482;48.234;13.006;2022-10-15T17:12:27;21.70;66.10
25616;DHT22;13482;48.234;13.006;2022-10-15T17:14:54;21.60;66.20
25616;DHT22;13482;48.234;13.006;2022-10-15T17:17:21;21.50;66.40
25616;DHT22;13482;48.234;13.006;2022-10-15T17:19:49;21.40;66.70
25616;DHT22;13482;48.234;13.006;2022-10-15T17:22:16;21.30;66.80
25616;DHT22;13482;48.234;13.006;2022-10-15T17:24:43;21.20;66.80
25616;DHT22;13482;48.234;13.006;2022-10-15T17:27:10;21.10;66.90
25616;DHT22;13482;48.234;13.006;2022-10-15T17:29:38;21.10;66.90
25616;DHT22;13482;48.234;13.006;2022-10-15T17:32:05;21.00;67.00
25616;DHT22;13482;48.234;13.006;2022-10-15T17:34:32;20.90;67.10
25616;DHT22;13482;48.234;13.006;2022-10-15T17:37:00;20.80;67.20
25616;DHT22;13482;48.234;13.006;2022-10-15T17:39:27;20.80;67.20
25616;DHT22;13482;48.234;13.006;2022-10-15T17:41:54;20.70;67.10
25616;DHT22;13482;48.234;13.006;2022-10-15T17:44:21;20.60;67.30
25616;DHT22;13482;48.234;13.006;2022-10-15T17:46:49;20.50;67.40
25616;DHT22;13482;48.234;13.006;2022-10-15T17:49:18;20.40;67.50
25616;DHT22;13482;48.234;13.006;2022-10-15T17:51:45;20.40;67.50
25616;DHT22;13482;48.234;13.006;2022-10-15T17:54:13;20.20;67.60
25616;DHT22;13482;48.234;13.006;2022-10-15T17:56:40;20.20;67.70
25616;DHT22;13482;48.234;13.006;2022-10-15T17:59:10;20.10;67.80
25616;DHT22;13482;48.234;13.006;2022-10-15T18:01:40;20.00;68.00
25616;DHT22;13482;48.234;13.006;2022-10-15T18:04:27;20.00;68.30
25616;DHT22;13482;48.234;13.006;2022-10-15T18:06:54;19.90;68.40
25616;DHT22;13482;48.234;13.006;2022-10-15T18:09:21;19.80;68.30
25616;DHT22;13482;48.234;13.006;2022-10-15T18:11:49;19.80;68.30
25616;DHT22;13482;48.234;13.006;2022-10-15T18:14:16;19.70;68.30
25616;DHT22;13482;48.234;13.006;2022-10-15T18:16:44;19.70;68.30
25616;DHT22;13482;48.234;13.006;2022-10-15T18:19:11;19.60;68.50
25616;DHT22;13482;48.234;13.006;2022-10-15T18:21:39;19.60;68.70
25616;DHT22;13482;48.234;13.006;2022-10-15T18:24:09;19.50;68.80
25616;DHT22;13482;48.234;13.006;2022-10-15T18:26:36;19.50;68.90
25616;DHT22;13482;48.234;13.006;2022-10-15T18:29:03;19.40;68.90